sensor_id;sensor_type;location;lat;lon;timestamp;P1;durP1;ratioP1;P2;durP2;ratioP2
21777;SDS011;11050;52.222;20.916;2024-01-11T00:00:32;89.13;;;34.23;;
21777;SDS011;11050;52.222;20.916;2024-01-11T00:02:58;112.57;;;44.23;;
21777;SDS011;11050;52.222;20.916;2024-01-11T00:05:24;103.17;;;36.73;;
21777;SDS011;11050;52.222;20.916;2024-01-11T00:07:49;121.53;;;48.37;;
21777;SDS011;11050;52.222;20.916;2024-01-11T00:10:15;99.43;;;31.13;;
21777;SDS011;11050;52.222;20.916;2024-01-11T00:12:42;87.97;;;30.70;;
21777;SDS011;11050;52.222;20.916;2024-01-11T00:15:07;98.33;;;30.57;;
21777;SDS011;11050;52.222;20.916;2024-01-11T00:17:34;73.53;;;27.87;;
21777;SDS011;11050;52.222;20.916;2024-01-11T00:20:00;96.90;;;33.87;;
21777;SDS011;11050;52.222;20.916;2024-01-11T00:22:26;106.10;;;37.07;;
21777;SDS011;11050;52.222;20.916;2024-01-11T00:24:52;94.93;;;33.20;;
21777;SDS011;11050;52.222;20.916;2024-01-11T00:27:18;98.33;;;35.03;;
21777;SDS011;11050;52.222;20.916;2024-01-11T00:29:44;107.13;;;39.47;;
21777;SDS011;11050;52.222;20.916;2024-01-11T00:32:10;110.70;;;39.90;;
21777;SDS011;11050;52.222;20.916;2024-01-11T00:34:35;103.70;;;37.20;;
21777;SDS011;11050;52.222;20.916;2024-01-11T00:37:02;93.37;;;31.97;;
21777;SDS011;11050;52.222;20.916;2024-01-11T00:39:27;127.80;;;43.87;;
21777;SDS011;11050;52.222;20.916;2024-01-11T00:41:54;81.90;;;28.20;;
21777;SDS011;11050;52.222;20.916;2024-01-11T00:44:20;105.70;;;37.07;;
21777;SDS011;11050;52.222;20.916;2024-01-11T00:46:46;80.90;;;29.93;;
21777;SDS011;11050;52.222;20.916;2024-01-11T00:49:12;121.67;;;42.37;;
21777;SDS011;11050;52.222;20.916;2024-01-11T00:51:38;104.37;;;35.90;;
21777;SDS011;11050;52.222;20.916;2024-01-11T00:54:03;91.30;;;33.23;;
21777;SDS011;11050;52.222;20.916;2024-01-11T00:56:29;91.77;;;34.27;;
21777;SDS011;11050;52.222;20.916;2024-01-11T00:58:55;112.30;;;40.67;;
21777;SDS011;11050;52.222;20.916;2024-01-11T01:01:21;57.93;;;20.77;;
21777;SDS011;11050;52.222;20.916;2024-01-11T01:03:46;109.37;;;37.67;;
21777;SDS011;11050;52.222;20.916;2024-01-11T01:06:12;89.57;;;33.73;;
21777;SDS011;11050;52.222;20.916;2024-01-11T01:08:38;90.03;;;33.33;;
21777;SDS011;11050;52.222;20.916;2024-01-11T01:11:04;83.90;;;28.07;;
21777;SDS011;11050;52.222;20.916;2024-01-11T01:13:30;126.47;;;45.97;;
21777;SDS011;11050;52.222;20.916;2024-01-11T01:15:56;122.13;;;42.27;;
21777;SDS011;11050;52.222;20.916;2024-01-11T01:18:21;106.63;;;38.93;;
21777;SDS011;11050;52.222;20.916;2024-01-11T01:20:47;106.90;;;41.23;;
21777;SDS011;11050;52.222;20.916;2024-01-11T01:23:13;73.33;;;26.43;;
21777;SDS011;11050;52.222;20.916;2024-01-11T01:25:38;90.07;;;35.10;;
21777;SDS011;11050;52.222;20.916;2024-01-11T01:28:04;82.53;;;30.43;;
21777;SDS011;11050;52.222;20.916;2024-01-11T01:30:30;111.30;;;39.63;;
21777;SDS011;11050;52.222;20.916;2024-01-11T01:32:56;80.33;;;29.17;;
21777;SDS011;11050;52.222;20.916;2024-01-11T01:35:21;62.57;;;21.97;;
21777;SDS011;11050;52.222;20.916;2024-01-11T01:37:47;69.90;;;25.67;;
21777;SDS011;11050;52.222;20.916;2024-01-11T01:40:13;96.10;;;36.23;;
21777;SDS011;11050;52.222;20.916;2024-01-11T01:42:42;94.20;;;34.93;;
21777;SDS011;11050;52.222;20.916;2024-01-11T01:45:09;64.07;;;25.13;;
21777;SDS011;11050;52.222;20.916;2024-01-11T01:47:35;57.40;;;21.33;;
21777;SDS011;11050;52.222;20.916;2024-01-11T01:50:07;78.43;;;28.37;;
21777;SDS011;11050;52.222;20.916;2024-01-11T01:52:36;82.73;;;28.70;;
21777;SDS011;11050;52.222;20.916;2024-01-11T01:55:04;54.73;;;20.53;;
21777;SDS011;11050;52.222;20.916;2024-01-11T01:57:34;81.10;;;29.23;;
21777;SDS011;11050;52.222;20.916;2024-01-11T02:00:01;81.57;;;32.93;;
21777;SDS011;11050;52.222;20.916;2024-01-11T02:02:29;76.63;;;26.90;;
21777;SDS011;11050;52.222;20.916;2024-01-11T02:04:59;102.33;;;33.23;;
21777;SDS011;11050;52.222;20.916;2024-01-11T02:07:26;85.20;;;30.33;;
21777;SDS011;11050;52.222;20.916;2024-01-11T02:09:52;69.53;;;25.17;;
21777;SDS011;11050;52.222;20.916;2024-01-11T02:12:18;90.90;;;32.37;;
21777;SDS011;11050;52.222;20.916;2024-01-11T02:14:44;90.33;;;31.00;;
21777;SDS011;11050;52.222;20.916;2024-01-11T02:17:11;72.60;;;27.63;;
21777;SDS011;11050;52.222;20.916;2024-01-11T02:19:36;53.60;;;18.93;;
21777;SDS011;11050;52.222;20.916;2024-01-11T02:22:05;76.40;;;28.80;;
21777;SDS011;11050;52.222;20.916;2024-01-11T02:24:40;77.23;;;27.93;;
21777;SDS011;11050;52.222;20.916;2024-01-11T02:27:06;75.00;;;26.60;;
21777;SDS011;11050;52.222;20.916;2024-01-11T02:29:32;61.97;;;22.13;;
21777;SDS011;11050;52.222;20.916;2024-01-11T02:31:59;71.87;;;27.30;;
21777;SDS011;11050;52.222;20.916;2024-01-11T02:34:27;83.47;;;30.03;;
21777;SDS011;11050;52.222;20.916;2024-01-11T02:36:54;57.90;;;18.50;;
21777;SDS011;11050;52.222;20.916;2024-01-11T02:39:20;65.17;;;26.20;;
21777;SDS011;11050;52.222;20.916;2024-01-11T02:41:50;65.63;;;24.00;;
21777;SDS011;11050;52.222;20.916;2024-01-11T02:44:20;66.57;;;25.50;;
21777;SDS011;11050;52.222;20.916;2024-01-11T02:46:45;58.43;;;20.67;;
21777;SDS011;11050;52.222;20.916;2024-01-11T02:49:11;69.30;;;23.93;;
21777;SDS011;11050;52.222;20.916;2024-01-11T02:51:37;48.93;;;17.27;;
21777;SDS011;11050;52.222;20.916;2024-01-11T02:54:03;63.30;;;24.03;;
21777;SDS011;11050;52.222;20.916;2024-01-11T02:56:28;59.93;;;23.30;;
21777;SDS011;11050;52.222;20.916;2024-01-11T02:58:54;56.90;;;20.37;;
21777;SDS011;11050;52.222;20.916;2024-01-11T03:01:20;57.60;;;21.20;;
21777;SDS011;11050;52.222;20.916;2024-01-11T03:03:46;64.43;;;22.80;;
21777;SDS011;11050;52.222;20.916;2024-01-11T03:06:12;58.63;;;22.97;;
21777;SDS011;11050;52.222;20.916;2024-01-11T03:08:37;76.20;;;27.97;;
21777;SDS011;11050;52.222;20.916;2024-01-11T03:11:03;74.70;;;25.00;;
21777;SDS011;11050;52.222;20.916;2024-01-11T03:13:29;72.87;;;25.00;;
21777;SDS011;11050;52.222;20.916;2024-01-11T03:15:56;69.20;;;26.63;;
21777;SDS011;11050;52.222;20.916;2024-01-11T03:18:22;75.77;;;27.33;;
21777;SDS011;11050;52.222;20.916;2024-01-11T03:20:48;53.00;;;17.43;;
21777;SDS011;11050;52.222;20.916;2024-01-11T03:23:13;66.90;;;24.40;;
21777;SDS011;11050;52.222;20.916;2024-01-11T03:25:39;73.07;;;26.50;;
21777;SDS011;11050;52.222;20.916;2024-01-11T03:28:05;68.73;;;22.73;;
21777;SDS011;11050;52.222;20.916;2024-01-11T03:30:31;66.27;;;24.50;;
21777;SDS011;11050;52.222;20.916;2024-01-11T03:32:56;67.87;;;23.27;;
21777;SDS011;11050;52.222;20.916;2024-01-11T03:35:22;64.77;;;22.30;;
21777;SDS011;11050;52.222;20.916;2024-01-11T03:37:48;72.00;;;24.57;;
21777;SDS011;11050;52.222;20.916;2024-01-11T03:40:14;64.17;;;21.30;;
21777;SDS011;11050;52.222;20.916;2024-01-11T03:42:40;48.10;;;16.57;;
21777;SDS011;11050;52.222;20.916;2024-01-11T03:45:07;65.83;;;22.63;;
21777;SDS011;11050;52.222;20.916;2024-01-11T03:47:33;85.20;;;29.20;;
21777;SDS011;11050;52.222;20.916;2024-01-11T03:49:59;49.10;;;18.13;;
21777;SDS011;11050;52.222;20.916;2024-01-11T03:52:24;50.73;;;19.07;;
21777;SDS011;11050;52.222;20.916;2024-01-11T03:54:50;68.87;;;26.33;;
21777;SDS011;11050;52.222;20.916;2024-01-11T03:57:16;70.30;;;24.50;;
21777;SDS011;11050;52.222;20.916;2024-01-11T03:59:42;66.33;;;23.30;;
21777;SDS011;11050;52.222;20.916;2024-01-11T04:02:08;51.30;;;18.90;;
21777;SDS011;11050;52.222;20.916;2024-01-11T04:04:34;71.20;;;26.60;;
21777;SDS011;11050;52.222;20.916;2024-01-11T04:07:00;80.80;;;27.63;;
21777;SDS011;11050;52.222;20.916;2024-01-11T04:09:26;98.17;;;33.13;;
21777;SDS011;11050;52.222;20.916;2024-01-11T04:11:51;81.87;;;26.40;;
21777;SDS011;11050;52.222;20.916;2024-01-11T04:14:17;74.77;;;22.50;;
21777;SDS011;11050;52.222;20.916;2024-01-11T04:16:43;72.67;;;26.23;;
21777;SDS011;11050;52.222;20.916;2024-01-11T04:19:09;87.67;;;29.83;;
21777;SDS011;11050;52.222;20.916;2024-01-11T04:21:35;71.33;;;25.80;;
21777;SDS011;11050;52.222;20.916;2024-01-11T04:24:04;60.67;;;19.30;;
21777;SDS011;11050;52.222;20.916;2024-01-11T04:26:33;80.47;;;25.20;;
21777;SDS011;11050;52.222;20.916;2024-01-11T04:28:59;74.23;;;24.20;;
21777;SDS011;11050;52.222;20.916;2024-01-11T04:31:25;65.67;;;23.30;;
21777;SDS011;11050;52.222;20.916;2024-01-11T04:33:52;78.63;;;27.50;;
21777;SDS011;11050;52.222;20.916;2024-01-11T04:36:18;63.33;;;23.20;;
21777;SDS011;11050;52.222;20.916;2024-01-11T04:38:44;78.60;;;27.57;;
21777;SDS011;11050;52.222;20.916;2024-01-11T04:41:10;63.73;;;21.93;;
21777;SDS011;11050;52.222;20.916;2024-01-11T04:43:40;83.03;;;25.73;;
21777;SDS011;11050;52.222;20.916;2024-01-11T04:46:21;84.50;;;25.03;;
21777;SDS011;11050;52.222;20.916;2024-01-11T04:48:48;62.77;;;20.33;;
21777;SDS011;11050;52.222;20.916;2024-01-11T04:51:15;86.73;;;31.93;;
21777;SDS011;11050;52.222;20.916;2024-01-11T04:53:44;72.23;;;24.43;;
21777;SDS011;11050;52.222;20.916;2024-01-11T04:56:11;71.67;;;23.20;;
21777;SDS011;11050;52.222;20.916;2024-01-11T04:58:41;52.57;;;19.23;;
21777;SDS011;11050;52.222;20.916;2024-01-11T05:01:11;75.03;;;21.87;;
21777;SDS011;11050;52.222;20.916;2024-01-11T05:03:42;74.97;;;25.80;;
21777;SDS011;11050;52.222;20.916;2024-01-11T05:06:16;73.97;;;25.03;;
21777;SDS011;11050;52.222;20.916;2024-01-11T05:08:45;85.97;;;26.20;;
21777;SDS011;11050;52.222;20.916;2024-01-11T05:11:15;69.60;;;23.17;;
21777;SDS011;11050;52.222;20.916;2024-01-11T05:13:51;73.67;;;23.10;;
21777;SDS011;11050;52.222;20.916;2024-01-11T05:16:22;53.17;;;18.57;;
21777;SDS011;11050;52.222;20.916;2024-01-11T05:18:53;50.07;;;16.57;;
21777;SDS011;11050;52.222;20.916;2024-01-11T05:21:22;47.57;;;16.70;;
21777;SDS011;11050;52.222;20.916;2024-01-11T05:23:48;61.40;;;21.60;;
21777;SDS011;11050;52.222;20.916;2024-01-11T05:26:14;32.27;;;11.30;;
21777;SDS011;11050;52.222;20.916;2024-01-11T05:28:41;57.20;;;20.37;;
21777;SDS011;11050;52.222;20.916;2024-01-11T05:31:11;57.37;;;20.03;;
21777;SDS011;11050;52.222;20.916;2024-01-11T05:33:39;51.70;;;18.43;;
21777;SDS011;11050;52.222;20.916;2024-01-11T05:36:06;66.07;;;23.43;;
21777;SDS011;11050;52.222;20.916;2024-01-11T05:38:33;71.63;;;26.23;;
21777;SDS011;11050;52.222;20.916;2024-01-11T05:41:00;49.67;;;19.23;;
21777;SDS011;11050;52.222;20.916;2024-01-11T05:43:26;41.43;;;14.40;;
21777;SDS011;11050;52.222;20.916;2024-01-11T05:45:52;60.07;;;21.03;;
21777;SDS011;11050;52.222;20.916;2024-01-11T05:48:18;56.40;;;19.77;;
21777;SDS011;11050;52.222;20.916;2024-01-11T05:50:44;42.77;;;15.03;;
21777;SDS011;11050;52.222;20.916;2024-01-11T05:53:10;34.77;;;11.77;;
21777;SDS011;11050;52.222;20.916;2024-01-11T05:55:37;62.70;;;20.57;;
21777;SDS011;11050;52.222;20.916;2024-01-11T05:58:04;50.67;;;19.50;;
21777;SDS011;11050;52.222;20.916;2024-01-11T06:00:30;45.63;;;16.17;;
21777;SDS011;11050;52.222;20.916;2024-01-11T06:02:56;64.13;;;20.13;;
21777;SDS011;11050;52.222;20.916;2024-01-11T06:05:22;54.60;;;21.60;;
21777;SDS011;11050;52.222;20.916;2024-01-11T06:07:47;43.43;;;16.03;;
21777;SDS011;11050;52.222;20.916;2024-01-11T06:10:16;46.10;;;17.13;;
21777;SDS011;11050;52.222;20.916;2024-01-11T06:12:42;53.17;;;16.90;;
21777;SDS011;11050;52.222;20.916;2024-01-11T06:15:08;69.20;;;25.50;;
21777;SDS011;11050;52.222;20.916;2024-01-11T06:17:34;42.50;;;15.23;;
21777;SDS011;11050;52.222;20.916;2024-01-11T06:20:01;39.77;;;14.90;;
21777;SDS011;11050;52.222;20.916;2024-01-11T06:22:26;49.37;;;17.40;;
21777;SDS011;11050;52.222;20.916;2024-01-11T06:24:52;44.30;;;16.17;;
21777;SDS011;11050;52.222;20.916;2024-01-11T06:27:18;43.87;;;16.67;;
21777;SDS011;11050;52.222;20.916;2024-01-11T06:29:44;46.93;;;17.50;;
21777;SDS011;11050;52.222;20.916;2024-01-11T06:32:10;47.93;;;17.97;;
21777;SDS011;11050;52.222;20.916;2024-01-11T06:34:35;46.73;;;16.97;;
21777;SDS011;11050;52.222;20.916;2024-01-11T06:37:01;51.60;;;16.33;;
21777;SDS011;11050;52.222;20.916;2024-01-11T06:39:28;49.77;;;15.83;;
21777;SDS011;11050;52.222;20.916;2024-01-11T06:41:54;38.57;;;14.53;;
21777;SDS011;11050;52.222;20.916;2024-01-11T06:44:20;35.90;;;14.37;;
21777;SDS011;11050;52.222;20.916;2024-01-11T06:46:46;34.67;;;13.77;;
21777;SDS011;11050;52.222;20.916;2024-01-11T06:49:12;39.67;;;15.57;;
21777;SDS011;11050;52.222;20.916;2024-01-11T06:51:38;22.57;;;9.73;;
21777;SDS011;11050;52.222;20.916;2024-01-11T06:54:04;49.00;;;17.27;;
21777;SDS011;11050;52.222;20.916;2024-01-11T06:56:30;37.17;;;13.33;;
21777;SDS011;11050;52.222;20.916;2024-01-11T06:58:55;47.90;;;16.63;;
21777;SDS011;11050;52.222;20.916;2024-01-11T07:01:21;50.43;;;17.90;;
21777;SDS011;11050;52.222;20.916;2024-01-11T07:03:48;31.23;;;12.10;;
21777;SDS011;11050;52.222;20.916;2024-01-11T07:06:14;41.17;;;14.73;;
21777;SDS011;11050;52.222;20.916;2024-01-11T07:08:40;34.60;;;12.83;;
21777;SDS011;11050;52.222;20.916;2024-01-11T07:11:06;54.73;;;19.30;;
21777;SDS011;11050;52.222;20.916;2024-01-11T07:13:32;38.87;;;13.97;;
21777;SDS011;11050;52.222;20.916;2024-01-11T07:15:58;48.10;;;17.37;;
21777;SDS011;11050;52.222;20.916;2024-01-11T07:18:25;37.27;;;12.60;;
21777;SDS011;11050;52.222;20.916;2024-01-11T07:20:51;43.77;;;12.63;;
21777;SDS011;11050;52.222;20.916;2024-01-11T07:23:18;43.23;;;14.57;;
21777;SDS011;11050;52.222;20.916;2024-01-11T07:25:44;59.07;;;20.00;;
21777;SDS011;11050;52.222;20.916;2024-01-11T07:28:09;55.40;;;14.63;;
21777;SDS011;11050;52.222;20.916;2024-01-11T07:30:35;41.10;;;14.30;;
21777;SDS011;11050;52.222;20.916;2024-01-11T07:33:01;51.23;;;16.23;;
21777;SDS011;11050;52.222;20.916;2024-01-11T07:35:27;45.60;;;15.47;;
21777;SDS011;11050;52.222;20.916;2024-01-11T07:37:53;40.33;;;14.70;;
21777;SDS011;11050;52.222;20.916;2024-01-11T07:40:19;45.43;;;13.30;;
21777;SDS011;11050;52.222;20.916;2024-01-11T07:42:45;51.37;;;17.87;;
21777;SDS011;11050;52.222;20.916;2024-01-11T07:45:11;45.20;;;14.73;;
21777;SDS011;11050;52.222;20.916;2024-01-11T07:47:37;52.73;;;17.77;;
21777;SDS011;11050;52.222;20.916;2024-01-11T07:50:04;51.77;;;15.60;;
21777;SDS011;11050;52.222;20.916;2024-01-11T07:52:37;42.77;;;14.10;;
21777;SDS011;11050;52.222;20.916;2024-01-11T07:55:08;35.73;;;11.83;;
21777;SDS011;11050;52.222;20.916;2024-01-11T07:57:39;40.37;;;12.63;;
21777;SDS011;11050;52.222;20.916;2024-01-11T08:00:05;37.50;;;12.30;;
21777;SDS011;11050;52.222;20.916;2024-01-11T08:02:32;52.33;;;18.10;;
21777;SDS011;11050;52.222;20.916;2024-01-11T08:04:58;47.17;;;16.93;;
21777;SDS011;11050;52.222;20.916;2024-01-11T08:07:25;47.50;;;16.00;;
21777;SDS011;11050;52.222;20.916;2024-01-11T08:09:52;56.67;;;14.90;;
21777;SDS011;11050;52.222;20.916;2024-01-11T08:12:17;46.27;;;14.90;;
21777;SDS011;11050;52.222;20.916;2024-01-11T08:14:43;51.27;;;13.07;;
21777;SDS011;11050;52.222;20.916;2024-01-11T08:17:11;46.13;;;12.07;;
21777;SDS011;11050;52.222;20.916;2024-01-11T08:19:38;62.47;;;18.97;;
21777;SDS011;11050;52.222;20.916;2024-01-11T08:22:05;51.13;;;14.47;;
21777;SDS011;11050;52.222;20.916;2024-01-11T08:24:31;56.03;;;17.70;;
21777;SDS011;11050;52.222;20.916;2024-01-11T08:26:57;50.07;;;14.53;;
21777;SDS011;11050;52.222;20.916;2024-01-11T08:29:23;51.13;;;16.70;;
21777;SDS011;11050;52.222;20.916;2024-01-11T08:31:49;37.63;;;13.43;;
21777;SDS011;11050;52.222;20.916;2024-01-11T08:34:15;46.27;;;14.43;;
21777;SDS011;11050;52.222;20.916;2024-01-11T08:36:41;41.40;;;13.73;;
21777;SDS011;11050;52.222;20.916;2024-01-11T08:39:07;68.70;;;22.20;;
21777;SDS011;11050;52.222;20.916;2024-01-11T08:41:33;60.13;;;18.03;;
21777;SDS011;11050;52.222;20.916;2024-01-11T08:44:03;57.93;;;17.47;;
21777;SDS011;11050;52.222;20.916;2024-01-11T08:46:32;61.13;;;17.23;;
21777;SDS011;11050;52.222;20.916;2024-01-11T08:48:59;45.67;;;15.07;;
21777;SDS011;11050;52.222;20.916;2024-01-11T08:51:28;51.87;;;14.80;;
21777;SDS011;11050;52.222;20.916;2024-01-11T08:53:54;46.13;;;13.37;;
21777;SDS011;11050;52.222;20.916;2024-01-11T08:56:20;56.67;;;17.30;;
21777;SDS011;11050;52.222;20.916;2024-01-11T08:58:47;39.13;;;13.40;;
21777;SDS011;11050;52.222;20.916;2024-01-11T09:01:15;35.57;;;12.27;;
21777;SDS011;11050;52.222;20.916;2024-01-11T09:03:42;52.87;;;17.93;;
21777;SDS011;11050;52.222;20.916;2024-01-11T09:06:08;23.90;;;9.13;;
21777;SDS011;11050;52.222;20.916;2024-01-11T09:08:35;56.50;;;18.63;;
21777;SDS011;11050;52.222;20.916;2024-01-11T09:11:01;47.83;;;16.07;;
21777;SDS011;11050;52.222;20.916;2024-01-11T09:13:28;50.83;;;14.53;;
21777;SDS011;11050;52.222;20.916;2024-01-11T09:15:54;55.37;;;17.87;;
21777;SDS011;11050;52.222;20.916;2024-01-11T09:18:21;28.87;;;10.30;;
21777;SDS011;11050;52.222;20.916;2024-01-11T09:20:47;48.57;;;15.40;;
21777;SDS011;11050;52.222;20.916;2024-01-11T09:23:13;41.53;;;14.67;;
21777;SDS011;11050;52.222;20.916;2024-01-11T09:25:40;49.77;;;15.77;;
21777;SDS011;11050;52.222;20.916;2024-01-11T09:28:06;41.13;;;16.13;;
21777;SDS011;11050;52.222;20.916;2024-01-11T09:30:32;41.37;;;14.20;;
21777;SDS011;11050;52.222;20.916;2024-01-11T09:32:58;32.17;;;9.43;;
21777;SDS011;11050;52.222;20.916;2024-01-11T09:35:25;42.33;;;15.90;;
21777;SDS011;11050;52.222;20.916;2024-01-11T09:37:51;41.07;;;13.77;;
21777;SDS011;11050;52.222;20.916;2024-01-11T09:40:17;40.77;;;14.03;;
21777;SDS011;11050;52.222;20.916;2024-01-11T09:42:44;37.27;;;12.47;;
21777;SDS011;11050;52.222;20.916;2024-01-11T09:45:12;66.57;;;25.90;;
21777;SDS011;11050;52.222;20.916;2024-01-11T09:47:45;56.33;;;21.93;;
21777;SDS011;11050;52.222;20.916;2024-01-11T09:50:15;65.80;;;22.73;;
21777;SDS011;11050;52.222;20.916;2024-01-11T09:52:46;55.63;;;20.37;;
21777;SDS011;11050;52.222;20.916;2024-01-11T09:55:18;43.43;;;15.47;;
21777;SDS011;11050;52.222;20.916;2024-01-11T09:57:45;49.87;;;18.13;;
21777;SDS011;11050;52.222;20.916;2024-01-11T10:00:13;35.80;;;12.67;;
21777;SDS011;11050;52.222;20.916;2024-01-11T10:02:44;42.70;;;15.17;;
21777;SDS011;11050;52.222;20.916;2024-01-11T10:05:13;51.33;;;17.30;;
21777;SDS011;11050;52.222;20.916;2024-01-11T10:07:40;61.63;;;21.77;;
21777;SDS011;11050;52.222;20.916;2024-01-11T10:10:06;57.47;;;22.70;;
21777;SDS011;11050;52.222;20.916;2024-01-11T10:12:36;54.83;;;21.30;;
21777;SDS011;11050;52.222;20.916;2024-01-11T10:15:07;43.13;;;15.07;;
21777;SDS011;11050;52.222;20.916;2024-01-11T10:17:44;49.20;;;19.07;;
21777;SDS011;11050;52.222;20.916;2024-01-11T10:20:13;44.43;;;17.67;;
21777;SDS011;11050;52.222;20.916;2024-01-11T10:22:40;69.90;;;28.80;;
21777;SDS011;11050;52.222;20.916;2024-01-11T10:25:10;74.13;;;31.53;;
21777;SDS011;11050;52.222;20.916;2024-01-11T10:27:39;86.07;;;38.13;;
21777;SDS011;11050;52.222;20.916;2024-01-11T10:30:09;60.33;;;25.93;;
21777;SDS011;11050;52.222;20.916;2024-01-11T10:32:45;68.87;;;28.80;;
21777;SDS011;11050;52.222;20.916;2024-01-11T10:35:12;49.30;;;22.67;;
21777;SDS011;11050;52.222;20.916;2024-01-11T10:37:38;55.70;;;21.53;;
21777;SDS011;11050;52.222;20.916;2024-01-11T10:40:06;60.80;;;21.17;;
21777;SDS011;11050;52.222;20.916;2024-01-11T10:42:41;48.33;;;19.20;;
21777;SDS011;11050;52.222;20.916;2024-01-11T10:45:15;45.80;;;15.63;;
21777;SDS011;11050;52.222;20.916;2024-01-11T10:50:18;48.63;;;17.53;;
21777;SDS011;11050;52.222;20.916;2024-01-11T10:52:51;47.43;;;15.27;;
21777;SDS011;11050;52.222;20.916;2024-01-11T10:55:37;48.47;;;17.23;;
21777;SDS011;11050;52.222;20.916;2024-01-11T10:58:06;33.40;;;10.50;;
21777;SDS011;11050;52.222;20.916;2024-01-11T11:00:32;46.40;;;15.70;;
21777;SDS011;11050;52.222;20.916;2024-01-11T11:03:00;42.70;;;16.83;;
21777;SDS011;11050;52.222;20.916;2024-01-11T11:05:31;53.80;;;17.23;;
21777;SDS011;11050;52.222;20.916;2024-01-11T11:08:02;59.87;;;19.53;;
21777;SDS011;11050;52.222;20.916;2024-01-11T11:10:33;56.00;;;19.27;;
21777;SDS011;11050;52.222;20.916;2024-01-11T11:13:00;71.07;;;22.50;;
21777;SDS011;11050;52.222;20.916;2024-01-11T11:15:28;57.37;;;18.00;;
21777;SDS011;11050;52.222;20.916;2024-01-11T11:17:54;62.57;;;22.67;;
21777;SDS011;11050;52.222;20.916;2024-01-11T11:20:22;43.40;;;15.70;;
21777;SDS011;11050;52.222;20.916;2024-01-11T11:22:49;75.43;;;25.63;;
21777;SDS011;11050;52.222;20.916;2024-01-11T11:25:32;115.53;;;21.77;;
21777;SDS011;11050;52.222;20.916;2024-01-11T11:27:59;58.53;;;17.50;;
21777;SDS011;11050;52.222;20.916;2024-01-11T11:30:37;84.73;;;25.10;;
21777;SDS011;11050;52.222;20.916;2024-01-11T11:33:08;73.97;;;21.67;;
21777;SDS011;11050;52.222;20.916;2024-01-11T11:35:36;57.90;;;20.00;;
21777;SDS011;11050;52.222;20.916;2024-01-11T11:38:03;76.00;;;25.63;;
21777;SDS011;11050;52.222;20.916;2024-01-11T11:40:37;72.67;;;25.67;;
21777;SDS011;11050;52.222;20.916;2024-01-11T11:43:07;88.03;;;30.70;;
21777;SDS011;11050;52.222;20.916;2024-01-11T11:45:34;83.47;;;30.77;;
21777;SDS011;11050;52.222;20.916;2024-01-11T11:48:02;92.17;;;32.17;;
21777;SDS011;11050;52.222;20.916;2024-01-11T11:51:14;66.73;;;23.90;;
21777;SDS011;11050;52.222;20.916;2024-01-11T11:53:41;86.60;;;30.23;;
21777;SDS011;11050;52.222;20.916;2024-01-11T11:56:08;88.67;;;30.70;;
21777;SDS011;11050;52.222;20.916;2024-01-11T11:58:35;83.77;;;30.30;;
21777;SDS011;11050;52.222;20.916;2024-01-11T12:01:02;98.43;;;31.90;;
21777;SDS011;11050;52.222;20.916;2024-01-11T12:06:09;85.80;;;26.53;;
21777;SDS011;11050;52.222;20.916;2024-01-11T12:08:36;79.80;;;23.83;;
21777;SDS011;11050;52.222;20.916;2024-01-11T12:11:03;97.80;;;28.53;;
21777;SDS011;11050;52.222;20.916;2024-01-11T12:13:30;64.47;;;22.57;;
21777;SDS011;11050;52.222;20.916;2024-01-11T12:15:57;67.50;;;22.83;;
21777;SDS011;11050;52.222;20.916;2024-01-11T12:18:23;89.27;;;26.50;;
21777;SDS011;11050;52.222;20.916;2024-01-11T12:20:49;80.97;;;26.73;;
21777;SDS011;11050;52.222;20.916;2024-01-11T12:23:18;58.93;;;19.90;;
21777;SDS011;11050;52.222;20.916;2024-01-11T12:25:44;74.93;;;21.53;;
21777;SDS011;11050;52.222;20.916;2024-01-11T12:28:10;68.43;;;21.20;;
21777;SDS011;11050;52.222;20.916;2024-01-11T12:30:36;56.87;;;17.93;;
21777;SDS011;11050;52.222;20.916;2024-01-11T12:33:03;72.57;;;23.50;;
21777;SDS011;11050;52.222;20.916;2024-01-11T12:35:30;43.00;;;13.70;;
21777;SDS011;11050;52.222;20.916;2024-01-11T12:38:03;38.73;;;14.77;;
21777;SDS011;11050;52.222;20.916;2024-01-11T12:40:32;67.17;;;20.17;;
21777;SDS011;11050;52.222;20.916;2024-01-11T12:43:05;63.40;;;21.87;;
21777;SDS011;11050;52.222;20.916;2024-01-11T12:45:32;53.40;;;17.97;;
21777;SDS011;11050;52.222;20.916;2024-01-11T12:48:00;51.57;;;18.47;;
21777;SDS011;11050;52.222;20.916;2024-01-11T12:50:28;65.27;;;22.63;;
21777;SDS011;11050;52.222;20.916;2024-01-11T12:55:32;47.33;;;14.63;;
21777;SDS011;11050;52.222;20.916;2024-01-11T12:58:08;76.77;;;24.23;;
21777;SDS011;11050;52.222;20.916;2024-01-11T13:00:35;41.70;;;12.83;;
21777;SDS011;11050;52.222;20.916;2024-01-11T13:03:02;65.30;;;18.83;;
21777;SDS011;11050;52.222;20.916;2024-01-11T13:05:29;59.37;;;20.50;;
21777;SDS011;11050;52.222;20.916;2024-01-11T13:08:00;52.77;;;15.03;;
21777;SDS011;11050;52.222;20.916;2024-01-11T13:10:36;56.43;;;17.60;;
21777;SDS011;11050;52.222;20.916;2024-01-11T13:13:03;63.23;;;20.97;;
21777;SDS011;11050;52.222;20.916;2024-01-11T13:15:30;63.30;;;21.40;;
21777;SDS011;11050;52.222;20.916;2024-01-11T13:17:59;44.40;;;16.10;;
21777;SDS011;11050;52.222;20.916;2024-01-11T13:20:26;55.17;;;19.30;;
21777;SDS011;11050;52.222;20.916;2024-01-11T13:25:44;78.50;;;29.07;;
21777;SDS011;11050;52.222;20.916;2024-01-11T13:28:12;85.67;;;27.73;;
21777;SDS011;11050;52.222;20.916;2024-01-11T13:30:42;84.27;;;29.90;;
21777;SDS011;11050;52.222;20.916;2024-01-11T13:33:09;53.03;;;18.70;;
21777;SDS011;11050;52.222;20.916;2024-01-11T13:35:36;63.83;;;20.23;;
21777;SDS011;11050;52.222;20.916;2024-01-11T13:38:03;51.07;;;19.90;;
21777;SDS011;11050;52.222;20.916;2024-01-11T13:40:30;65.60;;;23.03;;
21777;SDS011;11050;52.222;20.916;2024-01-11T13:42:57;75.50;;;27.57;;
21777;SDS011;11050;52.222;20.916;2024-01-11T13:45:23;58.87;;;22.17;;
21777;SDS011;11050;52.222;20.916;2024-01-11T13:47:50;53.83;;;20.33;;
21777;SDS011;11050;52.222;20.916;2024-01-11T13:50:19;42.60;;;15.20;;
21777;SDS011;11050;52.222;20.916;2024-01-11T13:52:45;40.17;;;14.13;;
21777;SDS011;11050;52.222;20.916;2024-01-11T13:55:12;58.60;;;20.13;;
21777;SDS011;11050;52.222;20.916;2024-01-11T13:57:38;53.60;;;18.73;;
21777;SDS011;11050;52.222;20.916;2024-01-11T14:00:06;69.83;;;22.67;;
21777;SDS011;11050;52.222;20.916;2024-01-11T14:02:36;76.10;;;26.47;;
21777;SDS011;11050;52.222;20.916;2024-01-11T14:05:02;67.83;;;25.13;;
21777;SDS011;11050;52.222;20.916;2024-01-11T14:07:31;54.60;;;18.50;;
21777;SDS011;11050;52.222;20.916;2024-01-11T14:09:57;64.13;;;24.10;;
21777;SDS011;11050;52.222;20.916;2024-01-11T14:12:24;54.77;;;15.90;;
21777;SDS011;11050;52.222;20.916;2024-01-11T14:14:49;66.67;;;24.77;;
21777;SDS011;11050;52.222;20.916;2024-01-11T14:17:15;79.13;;;24.60;;
21777;SDS011;11050;52.222;20.916;2024-01-11T14:19:41;86.27;;;28.67;;